sensor_id;sensor_type;location;lat;lon;timestamp;P1;durP1;ratioP1;P2;durP2;ratioP2
4182;SDS011;2105;52.300;9.182;2023-04-24T00:00:07;6.20;;;5.90;;
4182;SDS011;2105;52.300;9.182;2023-04-24T00:02:35;6.47;;;6.07;;
4182;SDS011;2105;52.300;9.182;2023-04-24T00:05:03;6.40;;;6.00;;
4182;SDS011;2105;52.300;9.182;2023-04-24T00:07:30;6.80;;;6.30;;
4182;SDS011;2105;52.300;9.182;2023-04-24T00:09:58;6.87;;;6.47;;
4182;SDS011;2105;52.300;9.182;2023-04-24T00:12:25;7.03;;;6.63;;
4182;SDS011;2105;52.300;9.182;2023-04-24T00:14:52;7.00;;;6.60;;
4182;SDS011;2105;52.300;9.182;2023-04-24T00:17:19;6.90;;;6.50;;
4182;SDS011;2105;52.300;9.182;2023-04-24T00:19:46;7.80;;;7.30;;
4182;SDS011;2105;52.300;9.182;2023-04-24T00:22:12;7.30;;;6.90;;
4182;SDS011;2105;52.300;9.182;2023-04-24T00:24:39;7.50;;;7.10;;
4182;SDS011;2105;52.300;9.182;2023-04-24T00:27:07;7.90;;;7.30;;
4182;SDS011;2105;52.300;9.182;2023-04-24T00:29:34;8.10;;;7.60;;
4182;SDS011;2105;52.300;9.182;2023-04-24T00:32:01;8.30;;;7.60;;
4182;SDS011;2105;52.300;9.182;2023-04-24T00:34:28;8.87;;;8.27;;
4182;SDS011;2105;52.300;9.182;2023-04-24T00:36:54;8.90;;;8.40;;
4182;SDS011;2105;52.300;9.182;2023-04-24T00:39:21;9.23;;;8.63;;
4182;SDS011;2105;52.300;9.182;2023-04-24T00:41:48;9.63;;;9.13;;
4182;SDS011;2105;52.300;9.182;2023-04-24T00:44:17;13.40;;;9.87;;
4182;SDS011;2105;52.300;9.182;2023-04-24T00:46:43;9.90;;;9.40;;
4182;SDS011;2105;52.300;9.182;2023-04-24T00:49:11;10.17;;;9.40;;
4182;SDS011;2105;52.300;9.182;2023-04-24T00:51:39;9.50;;;9.00;;
4182;SDS011;2105;52.300;9.182;2023-04-24T00:54:10;10.00;;;9.30;;
4182;SDS011;2105;52.300;9.182;2023-04-24T00:56:37;9.93;;;9.43;;
4182;SDS011;2105;52.300;9.182;2023-04-24T00:59:03;9.77;;;9.27;;
4182;SDS011;2105;52.300;9.182;2023-04-24T01:01:32;9.57;;;9.07;;
4182;SDS011;2105;52.300;9.182;2023-04-24T01:03:59;9.70;;;9.10;;
4182;SDS011;2105;52.300;9.182;2023-04-24T01:06:27;9.70;;;9.10;;
4182;SDS011;2105;52.300;9.182;2023-04-24T01:08:56;9.70;;;9.00;;
4182;SDS011;2105;52.300;9.182;2023-04-24T01:11:23;9.77;;;9.27;;
4182;SDS011;2105;52.300;9.182;2023-04-24T01:13:51;9.67;;;9.10;;
4182;SDS011;2105;52.300;9.182;2023-04-24T01:16:18;9.60;;;9.10;;
4182;SDS011;2105;52.300;9.182;2023-04-24T01:18:47;9.70;;;9.10;;
4182;SDS011;2105;52.300;9.182;2023-04-24T01:21:14;9.50;;;9.00;;
4182;SDS011;2105;52.300;9.182;2023-04-24T01:23:43;9.80;;;9.30;;
4182;SDS011;2105;52.300;9.182;2023-04-24T01:26:10;9.80;;;9.30;;
4182;SDS011;2105;52.300;9.182;2023-04-24T01:28:37;9.50;;;9.00;;
4182;SDS011;2105;52.300;9.182;2023-04-24T01:31:04;8.90;;;8.50;;
4182;SDS011;2105;52.300;9.182;2023-04-24T01:33:31;8.70;;;8.30;;
4182;SDS011;2105;52.300;9.182;2023-04-24T01:35:58;8.80;;;8.40;;
4182;SDS011;2105;52.300;9.182;2023-04-24T01:38:25;8.20;;;7.80;;
4182;SDS011;2105;52.300;9.182;2023-04-24T01:40:54;8.17;;;7.77;;
4182;SDS011;2105;52.300;9.182;2023-04-24T01:43:20;9.40;;;8.60;;
4182;SDS011;2105;52.300;9.182;2023-04-24T01:45:47;8.90;;;8.40;;
4182;SDS011;2105;52.300;9.182;2023-04-24T01:48:14;8.83;;;8.33;;
4182;SDS011;2105;52.300;9.182;2023-04-24T01:50:40;8.80;;;8.20;;
4182;SDS011;2105;52.300;9.182;2023-04-24T01:53:07;9.07;;;8.40;;
4182;SDS011;2105;52.300;9.182;2023-04-24T01:55:34;8.93;;;8.13;;
4182;SDS011;2105;52.300;9.182;2023-04-24T01:58:02;8.87;;;8.27;;
4182;SDS011;2105;52.300;9.182;2023-04-24T02:00:29;8.50;;;8.10;;
4182;SDS011;2105;52.300;9.182;2023-04-24T02:02:56;9.17;;;8.37;;
4182;SDS011;2105;52.300;9.182;2023-04-24T02:05:22;9.33;;;8.60;;
4182;SDS011;2105;52.300;9.182;2023-04-24T02:07:49;8.37;;;7.97;;
4182;SDS011;2105;52.300;9.182;2023-04-24T02:10:16;8.60;;;8.17;;
4182;SDS011;2105;52.300;9.182;2023-04-24T02:12:42;9.00;;;8.40;;
4182;SDS011;2105;52.300;9.182;2023-04-24T02:15:11;9.00;;;8.50;;
4182;SDS011;2105;52.300;9.182;2023-04-24T02:17:38;9.00;;;8.40;;
4182;SDS011;2105;52.300;9.182;2023-04-24T02:20:05;8.83;;;8.33;;
4182;SDS011;2105;52.300;9.182;2023-04-24T02:22:33;8.60;;;8.10;;
4182;SDS011;2105;52.300;9.182;2023-04-24T02:24:59;8.80;;;8.30;;
4182;SDS011;2105;52.300;9.182;2023-04-24T02:27:26;8.70;;;8.20;;
4182;SDS011;2105;52.300;9.182;2023-04-24T02:29:53;8.67;;;8.17;;
4182;SDS011;2105;52.300;9.182;2023-04-24T02:32:21;8.40;;;8.00;;
4182;SDS011;2105;52.300;9.182;2023-04-24T02:34:48;8.30;;;7.90;;
4182;SDS011;2105;52.300;9.182;2023-04-24T02:37:14;9.00;;;8.40;;
4182;SDS011;2105;52.300;9.182;2023-04-24T02:39:41;8.30;;;7.80;;
4182;SDS011;2105;52.300;9.182;2023-04-24T02:42:08;8.27;;;7.87;;
4182;SDS011;2105;52.300;9.182;2023-04-24T02:44:35;8.40;;;8.00;;
4182;SDS011;2105;52.300;9.182;2023-04-24T02:47:02;8.50;;;8.00;;
4182;SDS011;2105;52.300;9.182;2023-04-24T02:49:30;8.90;;;8.40;;
4182;SDS011;2105;52.300;9.182;2023-04-24T02:51:56;9.60;;;8.70;;
4182;SDS011;2105;52.300;9.182;2023-04-24T02:54:23;10.80;;;8.93;;
4182;SDS011;2105;52.300;9.182;2023-04-24T02:56:50;8.80;;;8.30;;
4182;SDS011;2105;52.300;9.182;2023-04-24T02:59:16;8.90;;;8.40;;
4182;SDS011;2105;52.300;9.182;2023-04-24T03:01:43;8.80;;;8.20;;
4182;SDS011;2105;52.300;9.182;2023-04-24T03:04:09;8.60;;;8.10;;
4182;SDS011;2105;52.300;9.182;2023-04-24T03:06:37;8.73;;;8.10;;
4182;SDS011;2105;52.300;9.182;2023-04-24T03:09:04;8.93;;;8.43;;
4182;SDS011;2105;52.300;9.182;2023-04-24T03:11:31;8.70;;;7.90;;
4182;SDS011;2105;52.300;9.182;2023-04-24T03:13:57;8.60;;;8.10;;
4182;SDS011;2105;52.300;9.182;2023-04-24T03:16:24;9.20;;;8.60;;
4182;SDS011;2105;52.300;9.182;2023-04-24T03:18:51;8.50;;;8.00;;
4182;SDS011;2105;52.300;9.182;2023-04-24T03:21:17;8.93;;;8.33;;
4182;SDS011;2105;52.300;9.182;2023-04-24T03:23:45;8.40;;;7.80;;
4182;SDS011;2105;52.300;9.182;2023-04-24T03:26:12;8.50;;;8.00;;
4182;SDS011;2105;52.300;9.182;2023-04-24T03:28:38;8.70;;;8.20;;
4182;SDS011;2105;52.300;9.182;2023-04-24T03:31:05;8.57;;;7.97;;
4182;SDS011;2105;52.300;9.182;2023-04-24T03:33:32;8.40;;;7.90;;
4182;SDS011;2105;52.300;9.182;2023-04-24T03:35:59;8.97;;;8.33;;
4182;SDS011;2105;52.300;9.182;2023-04-24T03:38:25;8.70;;;8.20;;
4182;SDS011;2105;52.300;9.182;2023-04-24T03:40:53;8.73;;;8.03;;
4182;SDS011;2105;52.300;9.182;2023-04-24T03:43:20;8.83;;;8.20;;
4182;SDS011;2105;52.300;9.182;2023-04-24T03:45:46;8.40;;;7.90;;
4182;SDS011;2105;52.300;9.182;2023-04-24T03:48:13;8.03;;;7.53;;
4182;SDS011;2105;52.300;9.182;2023-04-24T03:50:40;9.40;;;7.20;;
4182;SDS011;2105;52.300;9.182;2023-04-24T03:53:06;7.63;;;7.13;;
4182;SDS011;2105;52.300;9.182;2023-04-24T03:55:33;8.00;;;7.40;;
4182;SDS011;2105;52.300;9.182;2023-04-24T03:58:01;8.03;;;7.53;;
4182;SDS011;2105;52.300;9.182;2023-04-24T04:00:28;8.90;;;8.00;;
4182;SDS011;2105;52.300;9.182;2023-04-24T04:02:58;8.37;;;7.90;;
4182;SDS011;2105;52.300;9.182;2023-04-24T04:05:24;8.50;;;8.10;;
4182;SDS011;2105;52.300;9.182;2023-04-24T04:07:51;8.90;;;8.40;;
4182;SDS011;2105;52.300;9.182;2023-04-24T04:10:18;9.30;;;8.80;;
4182;SDS011;2105;52.300;9.182;2023-04-24T04:12:44;10.03;;;9.00;;
4182;SDS011;2105;52.300;9.182;2023-04-24T04:15:12;10.00;;;9.30;;
4182;SDS011;2105;52.300;9.182;2023-04-24T04:17:39;9.73;;;9.13;;
4182;SDS011;2105;52.300;9.182;2023-04-24T04:20:06;9.70;;;9.10;;
4182;SDS011;2105;52.300;9.182;2023-04-24T04:22:34;10.23;;;9.43;;
4182;SDS011;2105;52.300;9.182;2023-04-24T04:25:01;10.13;;;9.53;;
4182;SDS011;2105;52.300;9.182;2023-04-24T04:27:29;9.90;;;9.30;;
4182;SDS011;2105;52.300;9.182;2023-04-24T04:29:57;11.00;;;10.00;;
4182;SDS011;2105;52.300;9.182;2023-04-24T04:32:25;10.87;;;10.07;;
4182;SDS011;2105;52.300;9.182;2023-04-24T04:34:52;10.50;;;9.90;;
4182;SDS011;2105;52.300;9.182;2023-04-24T04:37:19;10.90;;;10.10;;
4182;SDS011;2105;52.300;9.182;2023-04-24T04:39:45;10.13;;;9.53;;
4182;SDS011;2105;52.300;9.182;2023-04-24T04:42:12;10.33;;;9.73;;
4182;SDS011;2105;52.300;9.182;2023-04-24T04:44:40;10.20;;;9.60;;
4182;SDS011;2105;52.300;9.182;2023-04-24T04:47:07;10.30;;;9.30;;
4182;SDS011;2105;52.300;9.182;2023-04-24T04:49:37;9.53;;;9.03;;
4182;SDS011;2105;52.300;9.182;2023-04-24T04:52:03;10.10;;;9.40;;
4182;SDS011;2105;52.300;9.182;2023-04-24T04:54:30;10.10;;;9.50;;
4182;SDS011;2105;52.300;9.182;2023-04-24T04:56:57;10.27;;;9.37;;
4182;SDS011;2105;52.300;9.182;2023-04-24T04:59:23;10.23;;;9.50;;
4182;SDS011;2105;52.300;9.182;2023-04-24T05:01:50;10.37;;;9.77;;
4182;SDS011;2105;52.300;9.182;2023-04-24T05:04:17;10.70;;;10.10;;
4182;SDS011;2105;52.300;9.182;2023-04-24T05:06:45;11.00;;;10.30;;
4182;SDS011;2105;52.300;9.182;2023-04-24T05:09:13;11.43;;;10.60;;
4182;SDS011;2105;52.300;9.182;2023-04-24T05:11:40;11.07;;;10.40;;
4182;SDS011;2105;52.300;9.182;2023-04-24T05:14:06;11.87;;;10.87;;
4182;SDS011;2105;52.300;9.182;2023-04-24T05:16:33;11.10;;;10.50;;
4182;SDS011;2105;52.300;9.182;2023-04-24T05:18:59;11.60;;;10.60;;
4182;SDS011;2105;52.300;9.182;2023-04-24T05:21:26;11.20;;;10.40;;
4182;SDS011;2105;52.300;9.182;2023-04-24T05:23:54;11.43;;;10.40;;
4182;SDS011;2105;52.300;9.182;2023-04-24T05:26:21;10.97;;;10.37;;
4182;SDS011;2105;52.300;9.182;2023-04-24T05:28:47;11.20;;;10.50;;
4182;SDS011;2105;52.300;9.182;2023-04-24T05:31:14;10.93;;;10.33;;
4182;SDS011;2105;52.300;9.182;2023-04-24T05:33:42;11.20;;;10.37;;
4182;SDS011;2105;52.300;9.182;2023-04-24T05:36:09;10.77;;;10.07;;
4182;SDS011;2105;52.300;9.182;2023-04-24T05:38:35;10.67;;;10.00;;
4182;SDS011;2105;52.300;9.182;2023-04-24T05:41:03;11.30;;;10.50;;
4182;SDS011;2105;52.300;9.182;2023-04-24T05:43:30;11.00;;;10.23;;
4182;SDS011;2105;52.300;9.182;2023-04-24T05:45:57;10.53;;;9.83;;
4182;SDS011;2105;52.300;9.182;2023-04-24T05:48:23;10.87;;;10.17;;
4182;SDS011;2105;52.300;9.182;2023-04-24T05:50:50;11.17;;;10.47;;
4182;SDS011;2105;52.300;9.182;2023-04-24T05:53:18;10.90;;;10.20;;
4182;SDS011;2105;52.300;9.182;2023-04-24T05:55:44;11.87;;;10.70;;
4182;SDS011;2105;52.300;9.182;2023-04-24T05:58:12;12.30;;;11.40;;
4182;SDS011;2105;52.300;9.182;2023-04-24T06:00:39;11.97;;;10.90;;
4182;SDS011;2105;52.300;9.182;2023-04-24T06:03:07;11.97;;;10.93;;
4182;SDS011;2105;52.300;9.182;2023-04-24T06:05:34;12.00;;;11.10;;
4182;SDS011;2105;52.300;9.182;2023-04-24T06:08:01;14.40;;;13.20;;
4182;SDS011;2105;52.300;9.182;2023-04-24T06:10:27;14.10;;;12.97;;
4182;SDS011;2105;52.300;9.182;2023-04-24T06:12:54;14.67;;;13.13;;
4182;SDS011;2105;52.300;9.182;2023-04-24T06:15:26;15.03;;;13.80;;
4182;SDS011;2105;52.300;9.182;2023-04-24T06:17:54;14.60;;;13.43;;
4182;SDS011;2105;52.300;9.182;2023-04-24T06:20:20;14.50;;;13.40;;
4182;SDS011;2105;52.300;9.182;2023-04-24T06:22:47;15.13;;;13.83;;
4182;SDS011;2105;52.300;9.182;2023-04-24T06:25:14;14.90;;;13.70;;
4182;SDS011;2105;52.300;9.182;2023-04-24T06:27:40;16.10;;;14.60;;
4182;SDS011;2105;52.300;9.182;2023-04-24T06:30:08;17.50;;;15.90;;
4182;SDS011;2105;52.300;9.182;2023-04-24T06:32:36;16.10;;;14.60;;
4182;SDS011;2105;52.300;9.182;2023-04-24T06:35:03;17.03;;;15.30;;
4182;SDS011;2105;52.300;9.182;2023-04-24T06:37:32;17.07;;;15.47;;
4182;SDS011;2105;52.300;9.182;2023-04-24T06:39:58;16.57;;;15.17;;
4182;SDS011;2105;52.300;9.182;2023-04-24T06:42:25;15.70;;;14.30;;
4182;SDS011;2105;52.300;9.182;2023-04-24T06:44:52;16.83;;;15.00;;
4182;SDS011;2105;52.300;9.182;2023-04-24T06:47:19;15.10;;;13.70;;
4182;SDS011;2105;52.300;9.182;2023-04-24T06:49:47;16.67;;;15.10;;
4182;SDS011;2105;52.300;9.182;2023-04-24T06:52:15;15.53;;;14.23;;
4182;SDS011;2105;52.300;9.182;2023-04-24T06:54:42;16.80;;;15.30;;
4182;SDS011;2105;52.300;9.182;2023-04-24T06:57:09;16.67;;;15.17;;
4182;SDS011;2105;52.300;9.182;2023-04-24T06:59:35;17.47;;;15.50;;
4182;SDS011;2105;52.300;9.182;2023-04-24T07:02:02;16.90;;;15.33;;
4182;SDS011;2105;52.300;9.182;2023-04-24T07:04:29;17.83;;;16.13;;
4182;SDS011;2105;52.300;9.182;2023-04-24T07:06:57;17.30;;;15.60;;
4182;SDS011;2105;52.300;9.182;2023-04-24T07:09:25;17.17;;;15.47;;
4182;SDS011;2105;52.300;9.182;2023-04-24T07:11:53;17.27;;;15.73;;
4182;SDS011;2105;52.300;9.182;2023-04-24T07:14:21;17.57;;;15.97;;
4182;SDS011;2105;52.300;9.182;2023-04-24T07:16:48;17.60;;;15.63;;
4182;SDS011;2105;52.300;9.182;2023-04-24T07:19:14;17.03;;;15.53;;
4182;SDS011;2105;52.300;9.182;2023-04-24T07:21:41;19.33;;;17.30;;
4182;SDS011;2105;52.300;9.182;2023-04-24T07:24:09;17.90;;;16.00;;
4182;SDS011;2105;52.300;9.182;2023-04-24T07:26:37;17.77;;;15.90;;
4182;SDS011;2105;52.300;9.182;2023-04-24T07:29:05;18.20;;;16.33;;
4182;SDS011;2105;52.300;9.182;2023-04-24T07:31:32;18.73;;;16.90;;
4182;SDS011;2105;52.300;9.182;2023-04-24T07:33:59;19.37;;;16.40;;
4182;SDS011;2105;52.300;9.182;2023-04-24T07:36:27;19.90;;;17.90;;
4182;SDS011;2105;52.300;9.182;2023-04-24T07:38:54;17.57;;;15.90;;
4182;SDS011;2105;52.300;9.182;2023-04-24T07:41:23;19.23;;;17.23;;
4182;SDS011;2105;52.300;9.182;2023-04-24T07:43:52;17.97;;;16.27;;
4182;SDS011;2105;52.300;9.182;2023-04-24T07:46:19;18.30;;;16.70;;
4182;SDS011;2105;52.300;9.182;2023-04-24T07:48:46;21.43;;;17.23;;
4182;SDS011;2105;52.300;9.182;2023-04-24T07:51:13;20.17;;;18.17;;
4182;SDS011;2105;52.300;9.182;2023-04-24T07:53:40;19.03;;;17.00;;
4182;SDS011;2105;52.300;9.182;2023-04-24T07:56:07;20.53;;;18.47;;
4182;SDS011;2105;52.300;9.182;2023-04-24T07:58:36;19.73;;;17.70;;
4182;SDS011;2105;52.300;9.182;2023-04-24T08:01:02;20.13;;;18.13;;
4182;SDS011;2105;52.300;9.182;2023-04-24T08:03:29;20.27;;;17.13;;
4182;SDS011;2105;52.300;9.182;2023-04-24T08:05:56;19.23;;;17.43;;
4182;SDS011;2105;52.300;9.182;2023-04-24T08:08:24;20.00;;;16.40;;
4182;SDS011;2105;52.300;9.182;2023-04-24T08:10:52;18.63;;;16.93;;
4182;SDS011;2105;52.300;9.182;2023-04-24T08:13:18;18.47;;;16.77;;
4182;SDS011;2105;52.300;9.182;2023-04-24T08:15:46;18.03;;;16.33;;
4182;SDS011;2105;52.300;9.182;2023-04-24T08:18:13;18.60;;;16.60;;
4182;SDS011;2105;52.300;9.182;2023-04-24T08:20:40;18.30;;;16.50;;
4182;SDS011;2105;52.300;9.182;2023-04-24T08:23:08;19.03;;;17.13;;
4182;SDS011;2105;52.300;9.182;2023-04-24T08:25:35;18.43;;;16.70;;
4182;SDS011;2105;52.300;9.182;2023-04-24T08:28:02;18.17;;;16.67;;
4182;SDS011;2105;52.300;9.182;2023-04-24T08:30:29;19.77;;;16.60;;
4182;SDS011;2105;52.300;9.182;2023-04-24T08:32:58;18.87;;;17.17;;
4182;SDS011;2105;52.300;9.182;2023-04-24T08:35:25;18.17;;;16.40;;
4182;SDS011;2105;52.300;9.182;2023-04-24T08:37:51;17.57;;;15.97;;
4182;SDS011;2105;52.300;9.182;2023-04-24T08:40:18;17.17;;;15.67;;
4182;SDS011;2105;52.300;9.182;2023-04-24T08:42:54;16.60;;;15.07;;
4182;SDS011;2105;52.300;9.182;2023-04-24T08:45:22;16.50;;;14.27;;
4182;SDS011;2105;52.300;9.182;2023-04-24T08:47:51;17.00;;;15.50;;
4182;SDS011;2105;52.300;9.182;2023-04-24T08:50:21;17.23;;;15.80;;
4182;SDS011;2105;52.300;9.182;2023-04-24T08:52:49;16.37;;;15.07;;
4182;SDS011;2105;52.300;9.182;2023-04-24T08:55:18;17.30;;;15.50;;
4182;SDS011;2105;52.300;9.182;2023-04-24T08:57:45;17.13;;;15.53;;
4182;SDS011;2105;52.300;9.182;2023-04-24T09:00:17;16.57;;;15.17;;
4182;SDS011;2105;52.300;9.182;2023-04-24T09:02:45;15.57;;;14.27;;
4182;SDS011;2105;52.300;9.182;2023-04-24T09:05:16;17.17;;;15.80;;
4182;SDS011;2105;52.300;9.182;2023-04-24T09:07:45;16.13;;;14.73;;
4182;SDS011;2105;52.300;9.182;2023-04-24T09:10:16;15.80;;;14.47;;
4182;SDS011;2105;52.300;9.182;2023-04-24T09:12:43;14.73;;;13.57;;
4182;SDS011;2105;52.300;9.182;2023-04-24T09:15:10;15.57;;;14.30;;
4182;SDS011;2105;52.300;9.182;2023-04-24T09:17:37;15.30;;;14.00;;
4182;SDS011;2105;52.300;9.182;2023-04-24T09:20:05;15.30;;;14.10;;
4182;SDS011;2105;52.300;9.182;2023-04-24T09:22:32;15.27;;;14.17;;
4182;SDS011;2105;52.300;9.182;2023-04-24T09:25:02;15.13;;;13.80;;
4182;SDS011;2105;52.300;9.182;2023-04-24T09:27:31;14.43;;;13.30;;
4182;SDS011;2105;52.300;9.182;2023-04-24T09:29:59;14.43;;;13.33;;
4182;SDS011;2105;52.300;9.182;2023-04-24T09:32:26;14.43;;;13.27;;
4182;SDS011;2105;52.300;9.182;2023-04-24T09:35:05;14.93;;;13.73;;
4182;SDS011;2105;52.300;9.182;2023-04-24T09:37:34;14.20;;;13.00;;
4182;SDS011;2105;52.300;9.182;2023-04-24T09:40:16;13.90;;;12.90;;
4182;SDS011;2105;52.300;9.182;2023-04-24T09:42:44;13.80;;;12.80;;
4182;SDS011;2105;52.300;9.182;2023-04-24T09:45:12;13.93;;;13.00;;
4182;SDS011;2105;52.300;9.182;2023-04-24T09:47:38;13.70;;;12.70;;
4182;SDS011;2105;52.300;9.182;2023-04-24T09:50:09;13.20;;;12.30;;
4182;SDS011;2105;52.300;9.182;2023-04-24T09:52:41;12.90;;;11.87;;
4182;SDS011;2105;52.300;9.182;2023-04-24T09:55:13;12.97;;;11.80;;
4182;SDS011;2105;52.300;9.182;2023-04-24T09:57:49;12.93;;;12.03;;
4182;SDS011;2105;52.300;9.182;2023-04-24T10:00:18;13.10;;;12.30;;
4182;SDS011;2105;52.300;9.182;2023-04-24T10:02:51;12.57;;;11.77;;
4182;SDS011;2105;52.300;9.182;2023-04-24T10:05:26;12.60;;;11.70;;
4182;SDS011;2105;52.300;9.182;2023-04-24T10:07:57;12.27;;;11.27;;
4182;SDS011;2105;52.300;9.182;2023-04-24T10:10:27;12.80;;;11.80;;
4182;SDS011;2105;52.300;9.182;2023-04-24T10:12:55;12.63;;;11.63;;
4182;SDS011;2105;52.300;9.182;2023-04-24T10:15:21;25.43;;;11.97;;
4182;SDS011;2105;52.300;9.182;2023-04-24T10:17:48;12.87;;;11.77;;
4182;SDS011;2105;52.300;9.182;2023-04-24T10:20:17;12.93;;;12.03;;
4182;SDS011;2105;52.300;9.182;2023-04-24T10:22:49;12.97;;;12.17;;
4182;SDS011;2105;52.300;9.182;2023-04-24T10:25:16;12.97;;;12.07;;
4182;SDS011;2105;52.300;9.182;2023-04-24T10:27:47;12.80;;;11.90;;
4182;SDS011;2105;52.300;9.182;2023-04-24T10:30:16;12.40;;;11.40;;
4182;SDS011;2105;52.300;9.182;2023-04-24T10:32:44;12.20;;;11.20;;
4182;SDS011;2105;52.300;9.182;2023-04-24T10:35:11;12.93;;;11.93;;
4182;SDS011;2105;52.300;9.182;2023-04-24T10:37:41;11.80;;;11.10;;
4182;SDS011;2105;52.300;9.182;2023-04-24T10:40:10;11.20;;;10.50;;
4182;SDS011;2105;52.300;9.182;2023-04-24T10:42:39;13.00;;;12.00;;
4182;SDS011;2105;52.300;9.182;2023-04-24T10:45:17;12.50;;;11.70;;
4182;SDS011;2105;52.300;9.182;2023-04-24T10:47:50;12.37;;;11.57;;
4182;SDS011;2105;52.300;9.182;2023-04-24T10:50:18;12.60;;;11.80;;
4182;SDS011;2105;52.300;9.182;2023-04-24T10:52:45;12.10;;;11.30;;
4182;SDS011;2105;52.300;9.182;2023-04-24T10:55:12;12.13;;;11.20;;
4182;SDS011;2105;52.300;9.182;2023-04-24T10:57:40;11.50;;;10.80;;
4182;SDS011;2105;52.300;9.182;2023-04-24T11:00:28;12.83;;;11.83;;
4182;SDS011;2105;52.300;9.182;2023-04-24T11:02:55;12.50;;;11.60;;
4182;SDS011;2105;52.300;9.182;2023-04-24T11:05:48;11.63;;;10.93;;
4182;SDS011;2105;52.300;9.182;2023-04-24T11:08:23;12.07;;;11.07;;
4182;SDS011;2105;52.300;9.182;2023-04-24T11:16:29;11.40;;;10.70;;
4182;SDS011;2105;52.300;9.182;2023-04-24T11:19:02;12.00;;;11.10;;
4182;SDS011;2105;52.300;9.182;2023-04-24T11:21:31;11.80;;;11.10;;
4182;SDS011;2105;52.300;9.182;2023-04-24T11:23:58;11.77;;;11.07;;
4182;SDS011;2105;52.300;9.182;2023-04-24T11:26:50;11.23;;;10.53;;
4182;SDS011;2105;52.300;9.182;2023-04-24T11:29:17;11.70;;;11.00;;
4182;SDS011;2105;52.300;9.182;2023-04-24T11:31:48;10.90;;;10.20;;
4182;SDS011;2105;52.300;9.182;2023-04-24T11:34:16;10.47;;;9.70;;
4182;SDS011;2105;52.300;9.182;2023-04-24T11:36:44;10.63;;;10.03;;
4182;SDS011;2105;52.300;9.182;2023-04-24T11:39:12;10.60;;;10.00;;
4182;SDS011;2105;52.300;9.182;2023-04-24T11:41:39;10.67;;;10.07;;
4182;SDS011;2105;52.300;9.182;2023-04-24T11:44:06;11.20;;;10.40;;
4182;SDS011;2105;52.300;9.182;2023-04-24T11:46:34;10.63;;;10.03;;
4182;SDS011;2105;52.300;9.182;2023-04-24T11:49:05;10.60;;;9.90;;
4182;SDS011;2105;52.300;9.182;2023-04-24T11:51:32;10.50;;;9.90;;
4182;SDS011;2105;52.300;9.182;2023-04-24T11:54:00;11.37;;;10.67;;
4182;SDS011;2105;52.300;9.182;2023-04-24T11:56:28;10.77;;;10.07;;
4182;SDS011;2105;52.300;9.182;2023-04-24T11:58:55;10.43;;;9.73;;
4182;SDS011;2105;52.300;9.182;2023-04-24T12:01:21;10.37;;;9.47;;
4182;SDS011;2105;52.300;9.182;2023-04-24T12:03:48;10.40;;;9.70;;
4182;SDS011;2105;52.300;9.182;2023-04-24T12:06:17;10.10;;;9.40;;
4182;SDS011;2105;52.300;9.182;2023-04-24T12:08:45;10.77;;;10.07;;
4182;SDS011;2105;52.300;9.182;2023-04-24T12:11:14;10.20;;;9.60;;
4182;SDS011;2105;52.300;9.182;2023-04-24T12:13:42;9.00;;;8.40;;
4182;SDS011;2105;52.300;9.182;2023-04-24T12:16:09;8.20;;;7.70;;
4182;SDS011;2105;52.300;9.182;2023-04-24T12:18:40;8.17;;;7.60;;
4182;SDS011;2105;52.300;9.182;2023-04-24T12:21:14;8.63;;;7.93;;
4182;SDS011;2105;52.300;9.182;2023-04-24T12:23:43;7.87;;;7.27;;
4182;SDS011;2105;52.300;9.182;2023-04-24T12:26:10;9.90;;;7.00;;
4182;SDS011;2105;52.300;9.182;2023-04-24T12:28:38;8.03;;;6.60;;
4182;SDS011;2105;52.300;9.182;2023-04-24T12:31:05;7.13;;;6.53;;
4182;SDS011;2105;52.300;9.182;2023-04-24T12:33:33;6.20;;;5.70;;
4182;SDS011;2105;52.300;9.182;2023-04-24T12:36:01;7.10;;;6.50;;
4182;SDS011;2105;52.300;9.182;2023-04-24T12:38:30;6.57;;;6.13;;
4182;SDS011;2105;52.300;9.182;2023-04-24T12:41:07;6.80;;;6.30;;
4182;SDS011;2105;52.300;9.182;2023-04-24T12:43:35;6.17;;;5.77;;
4182;SDS011;2105;52.300;9.182;2023-04-24T12:46:02;6.17;;;5.67;;
4182;SDS011;2105;52.300;9.182;2023-04-24T12:48:29;8.97;;;5.90;;
4182;SDS011;2105;52.300;9.182;2023-04-24T12:50:57;6.30;;;5.80;;
4182;SDS011;2105;52.300;9.182;2023-04-24T12:53:26;5.40;;;5.10;;
4182;SDS011;2105;52.300;9.182;2023-04-24T12:55:54;5.77;;;5.37;;
4182;SDS011;2105;52.300;9.182;2023-04-24T12:58:22;5.07;;;4.77;;
4182;SDS011;2105;52.300;9.182;2023-04-24T13:00:49;5.17;;;4.87;;
4182;SDS011;2105;52.300;9.182;2023-04-24T13:03:16;4.60;;;4.40;;
4182;SDS011;2105;52.300;9.182;2023-04-24T13:06:03;4.80;;;4.50;;
4182;SDS011;2105;52.300;9.182;2023-04-24T13:09:05;9.73;;;4.67;;
4182;SDS011;2105;52.300;9.182;2023-04-24T13:12:09;4.30;;;4.00;;
4182;SDS011;2105;52.300;9.182;2023-04-24T13:17:18;3.83;;;3.53;;
4182;SDS011;2105;52.300;9.182;2023-04-24T13:19:59;3.50;;;3.30;;
4182;SDS011;2105;52.300;9.182;2023-04-24T13:22:25;3.73;;;3.40;;
4182;SDS011;2105;52.300;9.182;2023-04-24T13:24:52;4.13;;;3.47;;
4182;SDS011;2105;52.300;9.182;2023-04-24T13:27:19;4.33;;;3.37;;
4182;SDS011;2105;52.300;9.182;2023-04-24T13:29:48;3.73;;;3.43;;
4182;SDS011;2105;52.300;9.182;2023-04-24T15:44:12;12.20;;;8.77;;
4182;SDS011;2105;52.300;9.182;2023-04-24T15:46:38;12.50;;;8.83;;
4182;SDS011;2105;52.300;9.182;2023-04-24T15:49:05;14.43;;;9.90;;
4182;SDS011;2105;52.300;9.182;2023-04-24T15:51:31;13.27;;;8.53;;
4182;SDS011;2105;52.300;9.182;2023-04-24T15:53:58;11.53;;;8.77;;
4182;SDS011;2105;52.300;9.182;2023-04-24T15:56:25;8.80;;;7.90;;
4182;SDS011;2105;52.300;9.182;2023-04-24T15:58:51;12.90;;;8.23;;
4182;SDS011;2105;52.300;9.182;2023-04-24T16:01:19;8.60;;;7.30;;
4182;SDS011;2105;52.300;9.182;2023-04-24T16:03:47;13.90;;;8.00;;
4182;SDS011;2105;52.300;9.182;2023-04-24T16:06:13;8.40;;;7.60;;
4182;SDS011;2105;52.300;9.182;2023-04-24T16:08:40;9.20;;;7.00;;
4182;SDS011;2105;52.300;9.182;2023-04-24T16:11:07;9.40;;;6.37;;
4182;SDS011;2105;52.300;9.182;2023-04-24T16:13:33;10.80;;;6.40;;
4182;SDS011;2105;52.300;9.182;2023-04-24T16:16:00;9.43;;;5.80;;
4182;SDS011;2105;52.300;9.182;2023-04-24T16:18:28;10.20;;;6.17;;
4182;SDS011;2105;52.300;9.182;2023-04-24T16:20:55;9.90;;;6.90;;
4182;SDS011;2105;52.300;9.182;2023-04-24T16:23:22;7.87;;;5.93;;
4182;SDS011;2105;52.300;9.182;2023-04-24T16:25:48;13.27;;;6.57;;
4182;SDS011;2105;52.300;9.182;2023-04-24T16:28:15;9.53;;;5.97;;
4182;SDS011;2105;52.300;9.182;2023-04-24T16:30:42;15.30;;;7.00;;
4182;SDS011;2105;52.300;9.182;2023-04-24T16:33:08;8.50;;;6.50;;
4182;SDS011;2105;52.300;9.182;2023-04-24T16:35:37;13.10;;;7.60;;
4182;SDS011;2105;52.300;9.182;2023-04-24T16:38:03;15.73;;;7.53;;
4182;SDS011;2105;52.300;9.182;2023-04-24T16:40:30;9.10;;;8.17;;
4182;SDS011;2105;52.300;9.182;2023-04-24T16:42:57;15.10;;;8.00;;
4182;SDS011;2105;52.300;9.182;2023-04-24T16:45:23;8.57;;;7.77;;
4182;SDS011;2105;52.300;9.182;2023-04-24T16:47:50;12.30;;;8.50;;
4182;SDS011;2105;52.300;9.182;2023-04-24T16:50:16;13.33;;;8.97;;
4182;SDS011;2105;52.300;9.182;2023-04-24T16:52:44;10.53;;;8.67;;
4182;SDS011;2105;52.300;9.182;2023-04-24T16:55:11;11.80;;;8.57;;
4182;SDS011;2105;52.300;9.182;2023-04-24T16:57:38;11.20;;;7.87;;
4182;SDS011;2105;52.300;9.182;2023-04-24T17:00:05;8.37;;;7.47;;
4182;SDS011;2105;52.300;9.182;2023-04-24T17:02:32;11.53;;;7.23;;
4182;SDS011;2105;52.300;9.182;2023-04-24T17:04:59;11.90;;;7.33;;
4182;SDS011;2105;52.300;9.182;2023-04-24T17:07:26;8.27;;;6.90;;
4182;SDS011;2105;52.300;9.182;2023-04-24T17:09:54;7.63;;;6.90;;
4182;SDS011;2105;52.300;9.182;2023-04-24T17:12:20;8.67;;;6.17;;
4182;SDS011;2105;52.300;9.182;2023-04-24T17:14:47;6.87;;;6.23;;
4182;SDS011;2105;52.300;9.182;2023-04-24T17:17:14;11.63;;;6.90;;
4182;SDS011;2105;52.300;9.182;2023-04-24T17:19:41;7.23;;;6.53;;
4182;SDS011;2105;52.300;9.182;2023-04-24T17:22:07;11.30;;;6.30;;
4182;SDS011;2105;52.300;9.182;2023-04-24T17:24:34;7.40;;;6.70;;